Time;durP1;ratioP1;P1;durP2;ratioP2;P2;SDS_P1;SDS_P2;PMS_P1;PMS_P2;Temp;Humidity;BMP_temperature;BMP_pressure;BME280_temperature;BME280_humidity;BME280_pressure;Samples;Min_cycle;Max_cycle;Signal;HPM_P1;HPM_P2
2021/08/08 00:01:04;;;;;;;;;2.00;1.00;;;;;17.87;59.96;100117.00;5018768;28;45357;-61
2021/08/08 00:03:29;;;;;;;;;1.00;1.00;;;;;17.88;60.10;100123.94;5018987;28;46019;-61
2021/08/08 00:05:55;;;;;;;;;2.25;1.00;;;;;17.88;60.14;100126.59;5018960;28;45299;-60
2021/08/08 00:08:20;;;;;;;;;3.75;2.00;;;;;17.86;59.71;100125.97;5019056;28;45309;-60
2021/08/08 00:10:46;;;;;;;;;3.00;2.00;;;;;17.85;59.38;100131.47;5018662;28;48154;-60
2021/08/08 00:13:11;;;;;;;;;1.75;1.75;;;;;17.83;59.47;100139.66;5018716;28;47447;-60
2021/08/08 00:15:38;;;;;;;;;2.00;2.00;;;;;17.84;59.77;100129.81;5017902;28;69460;-60
2021/08/08 00:18:05;;;;;;;;;3.75;2.00;;;;;17.83;59.84;100139.66;5018799;28;45221;-60
2021/08/08 00:20:30;;;;;;;;;3.00;2.25;;;;;17.83;59.96;100138.81;5018879;28;45468;-60
2021/08/08 00:22:55;;;;;;;;;6.00;2.00;;;;;17.81;60.16;100147.00;5017781;28;73395;-60
2021/08/08 00:25:21;;;;;;;;;3.25;2.50;;;;;17.80;60.22;100148.00;5017627;28;71347;-60
2021/08/08 00:27:46;;;;;;;;;3.75;3.75;;;;;17.77;60.03;100145.72;5018049;28;64406;-60
2021/08/08 00:30:12;;;;;;;;;3.25;3.00;;;;;17.76;59.95;100154.72;5018451;28;49102;-60
2021/08/08 00:32:37;;;;;;;;;3.00;2.00;;;;;17.73;59.57;100155.09;5018492;28;46192;-60
2021/08/08 00:35:03;;;;;;;;;5.25;3.50;;;;;17.69;59.85;100160.00;5018502;28;45236;-61
2021/08/08 00:37:28;;;;;;;;;4.00;2.75;;;;;17.67;59.77;100156.72;5018422;28;45261;-60
2021/08/08 00:39:54;;;;;;;;;3.00;1.00;;;;;17.66;59.66;100160.38;5018527;28;45319;-61
2021/08/08 00:42:19;;;;;;;;;4.25;1.00;;;;;17.62;59.92;100159.91;5016261;28;74453;-60
2021/08/08 00:44:44;;;;;;;;;0.25;0.00;;;;;17.60;60.14;100158.47;5017603;28;61701;-60
2021/08/08 00:47:10;;;;;;;;;2.00;2.00;;;;;17.56;60.20;100165.19;5017564;28;69376;-60
2021/08/08 00:49:35;;;;;;;;;2.25;2.00;;;;;17.52;61.08;100162.06;5018432;28;45461;-60
2021/08/08 00:52:01;;;;;;;;;2.25;2.25;;;;;17.47;61.17;100157.34;5017030;28;45505;-60
2021/08/08 00:54:26;;;;;;;;;1.25;1.25;;;;;17.43;61.18;100156.09;5018117;28;48753;-60
2021/08/08 00:56:51;;;;;;;;;4.50;2.25;;;;;17.40;61.04;100153.00;5018241;28;45418;-60
2021/08/08 00:59:17;;;;;;;;;6.00;2.00;;;;;17.36;60.90;100157.84;5018053;28;45978;-60
2021/08/08 01:01:43;;;;;;;;;3.00;2.00;;;;;17.33;61.42;100163.53;5017351;28;66878;-60
2021/08/08 01:04:14;;;;;;;;;4.00;1.50;;;;;17.29;61.33;100164.94;5016907;28;45732;-60
2021/08/08 01:06:48;;;;;;;;;2.00;2.00;;;;;17.28;61.42;100164.13;5016824;28;45522;-61
2021/08/08 01:09:14;;;;;;;;;2.25;2.00;;;;;17.25;61.27;100169.81;5018136;28;45437;-60
2021/08/08 01:11:39;;;;;;;;;3.75;2.00;;;;;17.23;61.89;100171.84;4999167;28;73398;-60
2021/08/08 01:14:05;;;;;;;;;5.00;2.00;;;;;17.18;61.40;100169.75;5017715;28;51223;-60
2021/08/08 01:16:30;;;;;;;;;2.00;2.00;;;;;17.16;61.64;100170.94;5016496;28;47922;-60
2021/08/08 01:18:55;;;;;;;;;3.00;2.00;;;;;17.11;62.05;100166.22;4999173;28;66385;-60
2021/08/08 01:21:21;;;;;;;;;2.50;2.00;;;;;17.08;61.93;100168.41;4999645;28;53564;-59
2021/08/08 01:24:13;;;;;;;;;1.00;1.00;;;;;17.05;62.10;100164.31;5016613;28;45339;-60
2021/08/08 01:26:39;;;;;;;;;5.00;1.75;;;;;17.02;62.46;100165.47;5014763;28;65806;-60
2021/08/08 01:29:05;;;;;;;;;2.00;2.00;;;;;16.98;62.91;100166.06;5016936;28;65042;-60
2021/08/08 01:31:30;;;;;;;;;3.00;1.00;;;;;16.96;62.61;100166.22;4998714;28;73680;-60
2021/08/08 01:33:55;;;;;;;;;3.50;1.75;;;;;16.93;62.52;100169.25;5017557;28;45316;-59
2021/08/08 01:36:21;;;;;;;;;2.00;1.00;;;;;16.88;62.94;100167.16;5017789;28;45324;-59
2021/08/08 01:38:52;;;;;;;;;4.50;1.50;;;;;16.86;63.17;100171.00;5017348;28;47606;-60
2021/08/08 01:41:18;;;;;;;;;4.00;2.00;;;;;16.83;63.18;100168.72;5017444;28;46083;-60
2021/08/08 01:43:45;;;;;;;;;2.25;2.00;;;;;16.81;63.04;100173.41;5015779;28;53768;-59
2021/08/08 01:46:11;;;;;;;;;3.00;2.00;;;;;16.78;63.18;100174.56;5017609;28;45432;-60
2021/08/08 01:48:45;;;;;;;;;1.25;1.25;;;;;16.75;63.57;100165.16;5016313;28;45349;-60
2021/08/08 01:51:10;;;;;;;;;2.25;2.00;;;;;16.73;63.32;100171.66;5016153;28;46157;-59
2021/08/08 01:53:36;;;;;;;;;2.50;1.00;;;;;16.68;63.54;100166.91;5015706;28;46831;-60
2021/08/08 01:56:01;;;;;;;;;5.00;2.00;;;;;16.68;63.92;100169.56;5015103;28;66550;-61
2021/08/08 01:58:29;;;;;;;;;2.50;1.50;;;;;16.68;63.75;100174.88;5015227;28;65973;-60
2021/08/08 02:00:55;;;;;;;;;3.00;2.25;;;;;16.65;63.72;100177.88;5016932;28;45466;-60
2021/08/08 02:03:20;;;;;;;;;3.00;1.50;;;;;16.63;63.60;100177.25;5017277;28;45420;-60
2021/08/08 02:05:46;;;;;;;;;2.00;2.00;;;;;16.58;64.28;100164.56;5016265;28;66735;-60
2021/08/08 02:08:11;;;;;;;;;3.75;2.75;;;;;16.59;64.54;100170.66;5016190;28;70466;-60
2021/08/08 02:10:36;;;;;;;;;3.25;3.00;;;;;16.59;64.24;100166.19;5016266;28;66080;-60
2021/08/08 02:13:02;;;;;;;;;3.00;3.00;;;;;16.59;64.48;100165.38;5017021;28;45341;-60
2021/08/08 02:15:27;;;;;;;;;3.25;3.00;;;;;16.59;64.61;100165.38;5016820;28;45804;-60
2021/08/08 02:17:53;;;;;;;;;4.00;3.00;;;;;16.58;64.58;100174.31;5015983;28;67620;-60
2021/08/08 02:20:19;;;;;;;;;4.25;2.00;;;;;16.56;64.71;100179.84;5016907;28;45423;-60
2021/08/08 02:22:45;;;;;;;;;2.25;2.00;;;;;16.55;64.81;100172.88;5016971;28;45797;-60
2021/08/08 02:25:11;;;;;;;;;3.50;2.00;;;;;16.56;64.47;100176.34;5016950;28;45320;-60
2021/08/08 02:27:36;;;;;;;;;2.75;2.75;;;;;16.58;64.76;100176.97;5017082;28;45316;-59
2021/08/08 02:30:04;;;;;;;;;4.75;3.00;;;;;16.58;64.87;100180.47;5016669;28;45340;-60
2021/08/08 02:32:29;;;;;;;;;3.50;3.50;;;;;16.61;64.54;100179.25;5016947;28;45694;-60
2021/08/08 02:34:54;;;;;;;;;3.00;2.00;;;;;16.61;64.59;100181.91;5015900;28;63048;-61
2021/08/08 02:37:20;;;;;;;;;2.75;2.75;;;;;16.62;65.04;100186.22;5016756;28;45311;-60
2021/08/08 02:39:45;;;;;;;;;5.50;3.25;;;;;16.62;64.70;100188.88;5016457;28;45968;-61
2021/08/08 02:42:11;;;;;;;;;6.50;3.00;;;;;16.63;64.52;100192.34;5015966;28;62636;-60
2021/08/08 02:44:36;;;;;;;;;3.00;2.00;;;;;16.65;64.69;100185.84;5015763;28;67414;-59
2021/08/08 02:47:01;;;;;;;;;3.50;2.00;;;;;16.65;64.62;100185.84;5015962;28;62570;-60
2021/08/08 02:49:27;;;;;;;;;3.75;1.25;;;;;16.66;64.56;100198.09;5015775;28;66867;-60
2021/08/08 02:51:54;;;;;;;;;4.00;3.00;;;;;16.67;64.58;100190.97;5015498;28;70354;-60
2021/08/08 02:54:20;;;;;;;;;4.25;3.00;;;;;16.68;64.65;100195.28;5016227;28;45375;-60
2021/08/08 02:56:47;;;;;;;;;2.75;2.75;;;;;16.70;64.30;100203.84;5015447;28;70465;-60
2021/08/08 02:59:12;;;;;;;;;2.75;2.25;;;;;16.70;64.44;100199.38;5014337;28;45371;-61
2021/08/08 03:01:37;;;;;;;;;2.25;2.25;;;;;16.70;64.24;100199.38;5016345;28;46185;-59
2021/08/08 03:04:03;;;;;;;;;2.50;2.00;;;;;16.71;64.60;100195.72;5015547;28;67340;-60
2021/08/08 03:06:28;;;;;;;;;3.00;3.00;;;;;16.73;64.22;100201.66;5017867;28;46964;-60
2021/08/08 03:08:54;;;;;;;;;4.00;2.50;;;;;16.73;64.10;100198.19;5018861;28;74281;-61
2021/08/08 03:11:19;;;;;;;;;2.25;2.00;;;;;16.71;64.12;100195.72;5019837;28;45250;-60
2021/08/08 03:13:44;;;;;;;;;3.25;3.00;;;;;16.72;64.11;100205.34;5018875;28;69327;-60
2021/08/08 03:16:10;;;;;;;;;4.50;1.50;;;;;16.71;64.59;100201.03;5019269;28;58708;-59
2021/08/08 03:18:35;;;;;;;;;3.00;2.50;;;;;16.70;64.50;100196.72;5018667;28;73685;-60
2021/08/08 03:21:01;;;;;;;;;3.50;3.00;;;;;16.73;64.25;100203.47;5019629;28;45173;-60
2021/08/08 03:23:26;;;;;;;;;2.00;2.00;;;;;16.73;64.31;100209.63;5019822;28;45504;-60
2021/08/08 03:25:52;;;;;;;;;4.50;4.00;;;;;16.73;64.35;100204.31;5019022;28;61001;-59
2021/08/08 03:28:17;;;;;;;;;2.50;2.50;;;;;16.72;64.46;100217.75;5018913;28;65255;-60
2021/08/08 03:30:43;;;;;;;;;2.50;2.00;;;;;16.70;64.29;100207.34;5018932;28;60339;-60
2021/08/08 03:33:08;;;;;;;;;3.00;2.00;;;;;16.70;64.36;100215.31;5019705;28;45756;-60
2021/08/08 03:35:33;;;;;;;;;3.00;2.75;;;;;16.71;64.15;100211.66;5018929;28;62005;-60
2021/08/08 03:37:59;;;;;;;;;2.25;2.00;;;;;16.72;64.27;100218.59;5019398;28;45373;-60
2021/08/08 03:40:24;;;;;;;;;2.75;2.75;;;;;16.71;64.49;100216.09;5019505;28;45411;-61
2021/08/08 03:42:49;;;;;;;;;2.00;2.00;;;;;16.68;64.38;100217.31;5019097;28;55289;-61
2021/08/08 03:45:15;;;;;;;;;2.00;2.00;;;;;16.69;64.10;100212.84;5018616;28;64450;-59
2021/08/08 03:47:40;;;;;;;;;2.00;2.00;;;;;16.68;63.98;100219.16;5019299;28;45393;-61
2021/08/08 03:50:06;;;;;;;;;3.00;3.00;;;;;16.69;64.31;100212.84;5019320;28;45336;-60
2021/08/08 03:52:32;;;;;;;;;3.50;2.25;;;;;16.67;64.33;100218.31;5018124;28;45399;-60
2021/08/08 03:54:57;;;;;;;;;3.25;3.00;;;;;16.66;64.33;100223.81;5018387;28;63828;-60
2021/08/08 03:57:22;;;;;;;;;1.50;1.50;;;;;16.65;64.38;100225.63;5018042;28;74846;-60
2021/08/08 03:59:48;;;;;;;;;2.50;2.50;;;;;16.65;64.49;100222.97;5017065;28;66842;-60
2021/08/08 04:02:13;;;;;;;;;3.25;2.75;;;;;16.65;64.11;100220.34;5018786;28;56571;-60
2021/08/08 04:04:38;;;;;;;;;4.25;3.00;;;;;16.65;64.38;100228.28;5018410;28;61559;-59
2021/08/08 04:07:05;;;;;;;;;3.00;3.00;;;;;16.64;64.21;100224.00;5018765;28;45307;-60
2021/08/08 04:09:30;;;;;;;;;8.00;3.75;;;;;16.61;64.09;100227.00;5018083;28;69386;-60
2021/08/08 04:11:56;;;;;;;;;3.75;3.00;;;;;16.59;64.47;100227.22;5018249;28;68642;-59
2021/08/08 04:14:21;;;;;;;;;5.75;3.75;;;;;16.59;64.47;100234.31;5018118;28;66453;-59
2021/08/08 04:16:46;;;;;;;;;4.00;3.00;;;;;16.56;64.17;100235.53;5017979;28;66428;-60
2021/08/08 04:19:12;;;;;;;;;5.00;3.00;;;;;16.55;64.64;100239.19;5017606;28;69055;-60
2021/08/08 04:21:37;;;;;;;;;3.50;3.00;;;;;16.53;64.39;100241.19;5017923;28;68022;-60
2021/08/08 04:24:02;;;;;;;;;3.75;3.00;;;;;16.52;64.20;100230.75;5018873;28;45246;-60
2021/08/08 04:26:28;;;;;;;;;3.25;3.00;;;;;16.49;64.59;100237.25;5018477;28;47160;-60
2021/08/08 04:28:53;;;;;;;;;3.00;3.00;;;;;16.47;64.33;100242.72;5017678;28;72180;-59
2021/08/08 04:31:19;;;;;;;;;4.00;3.00;;;;;16.44;64.65;100240.44;5018013;28;64942;-61
2021/08/08 04:33:44;;;;;;;;;4.50;3.75;;;;;16.43;64.65;100236.16;5017654;28;69450;-60
2021/08/08 04:36:09;;;;;;;;;5.25;2.00;;;;;16.41;64.23;100248.78;5017563;28;74319;-60
2021/08/08 04:38:35;;;;;;;;;8.00;3.00;;;;;16.39;64.34;100245.50;5018478;28;45384;-60
2021/08/08 04:41:00;;;;;;;;;6.00;3.75;;;;;16.39;64.56;100253.44;5018458;28;45371;-60
2021/08/08 04:43:26;;;;;;;;;5.00;4.00;;;;;16.37;64.74;100250.16;5018205;28;53321;-60
2021/08/08 04:45:51;;;;;;;;;2.75;2.75;;;;;16.36;64.56;100252.97;5018338;28;46165;-60
2021/08/08 04:48:16;;;;;;;;;4.50;2.75;;;;;16.32;64.75;100247.22;5018339;28;45339;-60
2021/08/08 04:50:42;;;;;;;;;2.00;2.00;;;;;16.30;64.87;100258.00;5017502;28;66925;-60
2021/08/08 04:53:17;;;;;;;;;6.00;4.25;;;;;16.29;64.66;100258.19;5017481;28;65565;-60
2021/08/08 04:55:43;;;;;;;;;4.50;4.00;;;;;16.29;64.55;100255.53;5018188;28;46068;-60
2021/08/08 04:58:08;;;;;;;;;7.00;4.50;;;;;16.29;64.47;100260.84;5018283;28;45346;-59
2021/08/08 05:00:34;;;;;;;;;7.00;4.50;;;;;16.27;64.53;100257.53;5018079;28;45213;-60
2021/08/08 05:03:01;;;;;;;;;5.75;3.50;;;;;16.25;64.53;100260.34;5018403;28;45505;-60
2021/08/08 05:05:27;;;;;;;;;6.00;5.00;;;;;16.25;64.73;100259.53;5018045;28;45419;-60
2021/08/08 05:07:52;;;;;;;;;6.00;4.00;;;;;16.24;64.45;100268.50;5017129;28;68449;-60
2021/08/08 05:10:18;;;;;;;;;4.25;3.50;;;;;16.23;64.36;100272.97;5017711;28;51442;-60
2021/08/08 05:12:44;;;;;;;;;5.50;5.50;;;;;16.23;64.49;100288.06;5018031;28;45436;-60
2021/08/08 05:15:09;;;;;;;;;4.00;4.00;;;;;16.22;65.14;100275.81;5017410;28;55397;-60
2021/08/08 05:17:35;;;;;;;;;6.50;5.00;;;;;16.22;64.57;100276.63;5017851;28;45363;-60
2021/08/08 05:20:00;;;;;;;;;5.50;3.00;;;;;16.24;64.36;100281.75;5017989;28;45301;-59
2021/08/08 05:22:26;;;;;;;;;6.00;3.00;;;;;16.24;64.39;100281.75;5017698;28;49299;-60
2021/08/08 05:24:51;;;;;;;;;5.50;4.00;;;;;16.24;64.36;100279.91;5016833;28;70173;-61
2021/08/08 05:27:16;;;;;;;;;6.25;4.00;;;;;16.25;64.35;100286.06;5017771;28;45353;-60
2021/08/08 05:29:42;;;;;;;;;5.25;4.00;;;;;16.27;64.33;100284.84;5016196;28;69373;-60
2021/08/08 05:32:07;;;;;;;;;5.00;3.00;;;;;16.28;64.47;100285.69;5017476;28;45424;-60
2021/08/08 05:34:33;;;;;;;;;6.00;3.25;;;;;16.29;64.30;100282.84;5017535;28;46125;-60
2021/08/08 05:36:58;;;;;;;;;3.25;3.00;;;;;16.32;64.02;100282.50;5016382;28;73188;-60
2021/08/08 05:39:23;;;;;;;;;2.25;2.25;;;;;16.35;64.14;100276.03;5016819;28;62227;-61
2021/08/08 05:41:49;;;;;;;;;4.75;4.00;;;;;16.38;64.05;100288.09;5016658;28;67986;-61
2021/08/08 05:44:14;;;;;;;;;5.00;3.75;;;;;16.39;63.49;100276.47;5016574;28;69753;-60
2021/08/08 05:46:40;;;;;;;;;5.25;3.50;;;;;16.41;63.30;100272.66;5017470;28;45260;-60
2021/08/08 05:49:07;;;;;;;;;4.75;4.00;;;;;16.43;63.20;100285.72;5017437;28;45210;-60
2021/08/08 05:51:33;;;;;;;;;5.25;3.25;;;;;16.43;63.44;100273.25;5017533;28;45496;-60
2021/08/08 05:53:58;;;;;;;;;4.75;2.50;;;;;16.47;62.76;100279.84;5017246;28;46050;-60
2021/08/08 05:56:24;;;;;;;;;5.00;2.75;;;;;16.49;62.92;100285.00;5017284;28;45480;-60
2021/08/08 05:58:49;;;;;;;;;4.00;3.00;;;;;16.52;63.02;100286.44;5016074;28;67706;-59
2021/08/08 06:01:15;;;;;;;;;5.75;3.50;;;;;16.54;62.92;100295.03;5016454;28;64157;-59
2021/08/08 06:03:40;;;;;;;;;4.50;3.00;;;;;16.57;62.89;100289.38;5016592;28;45446;-61
2021/08/08 06:06:09;;;;;;;;;3.25;3.00;;;;;16.59;62.69;100297.97;5017032;28;45386;-59
2021/08/08 06:08:34;;;;;;;;;7.25;3.00;;;;;16.61;62.45;100293.31;5017391;28;45316;-60
2021/08/08 06:10:59;;;;;;;;;8.75;3.00;;;;;16.63;62.06;100299.28;5016224;28;68746;-60
2021/08/08 06:13:25;;;;;;;;;3.25;3.25;;;;;16.66;62.35;100301.56;5016125;28;70181;-60
2021/08/08 06:15:50;;;;;;;;;3.00;3.00;;;;;16.68;62.09;100296.09;5016126;28;67989;-60
2021/08/08 06:18:16;;;;;;;;;3.00;3.00;;;;;16.70;62.12;100300.19;5015986;28;68301;-59
2021/08/08 06:20:41;;;;;;;;;4.50;3.50;;;;;16.72;62.00;100311.44;5016756;28;46733;-60
2021/08/08 06:23:06;;;;;;;;;4.00;3.00;;;;;16.76;62.04;100315.38;5015896;28;74371;-59
2021/08/08 06:25:32;;;;;;;;;5.25;4.25;;;;;16.78;61.94;100315.19;5016745;28;45254;-60
2021/08/08 06:27:57;;;;;;;;;5.25;3.50;;;;;16.82;61.71;100316.47;5016891;28;45234;-60
2021/08/08 06:30:22;;;;;;;;;4.50;3.25;;;;;16.84;61.65;100316.31;5015812;28;70454;-60
2021/08/08 06:32:48;;;;;;;;;5.00;3.00;;;;;16.88;61.85;100318.41;5015698;28;73126;-60
2021/08/08 06:35:13;;;;;;;;;4.50;2.50;;;;;16.90;61.62;100324.34;5015753;28;70398;-59
2021/08/08 06:37:43;;;;;;;;;4.00;3.00;;;;;16.95;61.46;100321.16;5015659;28;68857;-60
2021/08/08 06:40:09;;;;;;;;;4.00;3.25;;;;;16.97;61.40;100324.47;5015897;28;45366;-60
2021/08/08 06:42:35;;;;;;;;;5.00;3.00;;;;;17.00;61.18;100326.75;5016389;28;46184;-60
2021/08/08 06:45:00;;;;;;;;;4.50;3.00;;;;;17.03;61.53;100329.03;5016474;28;45373;-60
2021/08/08 06:47:26;;;;;;;;;4.00;3.25;;;;;17.09;61.42;100332.81;5015826;28;66927;-59
2021/08/08 06:49:51;;;;;;;;;7.50;3.00;;;;;17.13;60.59;100328.78;5016782;28;45399;-59
2021/08/08 06:52:16;;;;;;;;;4.25;2.75;;;;;17.18;60.72;100334.34;5015281;28;75555;-60
2021/08/08 06:54:42;;;;;;;;;7.25;3.25;;;;;17.25;60.92;100344.22;5016429;28;46635;-60
2021/08/08 06:57:07;;;;;;;;;2.00;2.00;;;;;17.28;60.40;100344.69;5016132;28;45382;-60
2021/08/08 06:59:35;;;;;;;;;5.00;4.00;;;;;17.33;59.93;100334.34;5014923;28;70394;-59
2021/08/08 07:02:00;;;;;;;;;5.50;3.00;;;;;17.35;59.89;100348.25;4998769;28;45370;-60
2021/08/08 07:04:26;;;;;;;;;5.00;2.25;;;;;17.38;59.77;100335.59;5015314;28;68755;-60
2021/08/08 07:06:51;;;;;;;;;2.00;2.00;;;;;17.40;59.65;100337.06;5015397;28;69403;-60
2021/08/08 07:09:16;;;;;;;;;4.75;4.00;;;;;17.44;59.62;100337.53;5016359;28;45320;-60
2021/08/08 07:11:42;;;;;;;;;5.00;3.00;;;;;17.49;59.35;100341.25;5014027;28;73569;-59
2021/08/08 07:14:07;;;;;;;;;5.00;3.00;;;;;17.58;59.22;100341.16;5015838;28;51289;-60
2021/08/08 07:16:33;;;;;;;;;3.25;3.25;;;;;17.67;59.17;100347.16;5016047;28;45284;-60
2021/08/08 07:18:58;;;;;;;;;2.75;2.75;;;;;17.79;59.06;100353.63;5016171;28;45371;-60
2021/08/08 07:21:23;;;;;;;;;6.00;4.00;;;;;17.90;58.56;100361.13;5015924;28;45868;-60
2021/08/08 07:23:49;;;;;;;;;6.25;3.50;;;;;18.00;58.56;100354.72;5015016;28;67683;-60
2021/08/08 07:26:14;;;;;;;;;4.00;2.00;;;;;18.08;57.83;100344.75;5016233;28;45281;-60
2021/08/08 07:28:39;;;;;;;;;6.25;3.00;;;;;18.15;57.51;100350.13;5015229;28;65771;-60
2021/08/08 07:31:05;;;;;;;;;4.50;3.00;;;;;18.22;57.21;100366.16;5015412;28;52979;-59
2021/08/08 07:33:30;;;;;;;;;5.00;3.25;;;;;18.28;57.30;100354.72;5015841;28;45186;-59
2021/08/08 07:35:56;;;;;;;;;3.00;3.00;;;;;18.39;57.30;100359.53;5016044;28;45549;-60
2021/08/08 07:38:21;;;;;;;;;4.75;2.25;;;;;18.52;56.87;100361.50;5015034;28;62172;-59
2021/08/08 07:40:46;;;;;;;;;3.25;3.00;;;;;18.65;56.67;100359.94;5014760;28;72305;-60
2021/08/08 07:43:12;;;;;;;;;3.75;3.25;;;;;18.76;55.84;100364.72;5015068;28;68299;-59
2021/08/08 07:45:37;;;;;;;;;5.00;3.00;;;;;18.91;56.22;100364.63;5015905;28;45391;-60
2021/08/08 07:48:03;;;;;;;;;5.50;3.50;;;;;19.07;55.41;100362.69;5015680;28;45475;-60
2021/08/08 07:50:29;;;;;;;;;5.25;3.00;;;;;19.21;55.02;100374.22;5015659;28;46204;-60
2021/08/08 07:52:54;;;;;;;;;6.25;5.25;;;;;19.32;54.49;100370.22;5016902;28;70174;-60
2021/08/08 07:55:21;;;;;;;;;10.00;6.25;;;;;19.40;54.56;100373.50;5018224;28;64001;-60
2021/08/08 07:57:46;;;;;;;;;7.00;3.75;;;;;19.47;54.22;100380.72;5019100;28;45260;-61
2021/08/08 08:00:12;;;;;;;;;2.50;2.50;;;;;19.50;53.97;100385.66;5017717;28;75571;-60
2021/08/08 08:02:37;;;;;;;;;3.25;3.25;;;;;19.52;53.94;100380.94;5018983;28;45328;-60
2021/08/08 08:05:03;;;;;;;;;3.50;3.50;;;;;19.52;54.05;100387.09;5018193;28;67447;-60
2021/08/08 08:07:28;;;;;;;;;3.75;3.00;;;;;19.50;53.67;100388.31;5018659;28;45540;-60
2021/08/08 08:09:54;;;;;;;;;4.25;4.25;;;;;19.43;54.18;100393.59;5018744;28;45300;-59
2021/08/08 08:12:19;;;;;;;;;3.50;3.50;;;;;19.38;53.97;100391.53;5017847;28;72939;-59
2021/08/08 08:14:44;;;;;;;;;4.00;4.00;;;;;19.34;53.59;100390.28;5018190;28;66182;-60
2021/08/08 08:17:10;;;;;;;;;3.00;3.00;;;;;19.29;53.78;100414.03;5018897;28;45424;-60
2021/08/08 08:19:35;;;;;;;;;5.00;2.50;;;;;19.23;53.60;100404.16;5018177;28;61373;-60
2021/08/08 08:22:00;;;;;;;;;6.50;4.00;;;;;19.16;53.50;100408.63;5018742;28;45223;-60
2021/08/08 08:24:26;;;;;;;;;4.50;4.25;;;;;19.08;53.93;100406.94;5017611;28;63651;-59
2021/08/08 08:26:51;;;;;;;;;4.00;3.25;;;;;19.05;53.70;100405.50;5017720;28;65827;-60
2021/08/08 08:29:20;;;;;;;;;5.50;4.00;;;;;19.05;53.66;100402.00;5016118;28;72672;-59
2021/08/08 08:31:45;;;;;;;;;3.75;3.00;;;;;19.04;54.03;100417.19;5018420;28;45935;-60
2021/08/08 08:34:10;;;;;;;;;3.00;3.00;;;;;19.04;53.98;100405.69;5017689;28;64070;-60
2021/08/08 08:36:36;;;;;;;;;5.50;2.00;;;;;19.06;54.17;100415.16;5016905;28;69564;-60
2021/08/08 08:39:01;;;;;;;;;3.75;3.75;;;;;19.10;53.96;100408.38;5016606;28;45867;-60
2021/08/08 08:41:28;;;;;;;;;4.00;4.00;;;;;19.15;53.88;100405.16;5017498;28;68751;-60
2021/08/08 08:44:00;;;;;;;;;4.00;4.00;;;;;19.23;53.92;100409.47;5018661;28;45394;-60
2021/08/08 08:46:26;;;;;;;;;4.75;4.75;;;;;19.30;53.67;100413.00;5018412;28;45389;-60
2021/08/08 08:48:54;;;;;;;;;3.25;3.25;;;;;19.34;53.24;100416.13;5018192;28;47178;-61
2021/08/08 08:51:28;;;;;;;;;4.50;3.00;;;;;19.35;53.64;100425.72;5018246;28;45717;-60
2021/08/08 08:53:53;;;;;;;;;5.50;3.75;;;;;19.36;53.02;100422.03;5001612;28;45401;-60
2021/08/08 08:56:18;;;;;;;;;3.00;3.00;;;;;19.37;53.22;100416.53;5018234;28;45506;-60
2021/08/08 08:58:44;;;;;;;;;6.75;4.00;;;;;19.38;53.28;100425.34;5015925;28;69164;-60
2021/08/08 09:01:09;;;;;;;;;3.00;3.00;;;;;19.38;52.85;100428.84;4999226;28;70634;-59
2021/08/08 09:03:35;;;;;;;;;5.00;3.00;;;;;19.41;52.49;100419.59;5016192;28;45432;-60
2021/08/08 09:06:00;;;;;;;;;3.00;3.00;;;;;19.51;52.89;100425.41;5017172;28;67546;-59
2021/08/08 09:08:25;;;;;;;;;4.50;3.00;;;;;19.66;52.71;100432.44;5016177;28;56284;-59
2021/08/08 09:11:04;;;;;;;;;4.50;3.00;;;;;19.82;52.49;100428.59;5016951;28;69802;-60
2021/08/08 09:13:30;;;;;;;;;3.50;1.75;;;;;20.00;52.15;100431.56;5018014;28;45371;-60
2021/08/08 09:15:55;;;;;;;;;3.00;2.25;;;;;20.22;51.63;100443.94;5017904;28;45288;-60
2021/08/08 09:18:21;;;;;;;;;4.50;4.00;;;;;;;;5016687;28;75564;-60
2021/08/08 09:20:48;;;;;;;;;3.00;3.00;;;;;20.66;50.83;100434.53;5016685;28;45387;-60
2021/08/08 09:23:13;;;;;;;;;5.50;4.00;;;;;20.88;50.97;100448.50;5018039;28;45394;-60
2021/08/08 09:25:53;;;;;;;;;6.50;4.75;;;;;21.06;49.11;100449.72;5017886;28;45573;-60
2021/08/08 09:28:18;;;;;;;;;3.75;3.00;;;;;21.22;48.80;100445.78;5017605;28;45304;-60
2021/08/08 09:30:44;;;;;;;;;5.00;3.25;;;;;21.34;48.42;100440.63;5016351;28;45482;-60
2021/08/08 09:33:10;;;;;;;;;5.50;3.25;;;;;21.47;48.49;100453.94;5016486;28;45429;-60
2021/08/08 09:35:37;;;;;;;;;7.50;4.00;;;;;21.56;47.77;100448.38;5017634;28;45371;-60
2021/08/08 09:38:07;;;;;;;;;4.00;4.00;;;;;21.60;47.77;100457.63;5017249;28;45384;-60
2021/08/08 09:40:33;;;;;;;;;6.50;5.25;;;;;21.62;47.99;100458.25;5017265;28;45775;-61
2021/08/08 09:42:58;;;;;;;;;3.25;3.25;;;;;21.64;47.75;100451.66;5017544;28;45282;-60
2021/08/08 09:45:42;;;;;;;;;4.50;4.50;;;;;21.64;46.89;100453.50;5017284;28;45447;-60
2021/08/08 09:48:12;;;;;;;;;7.00;5.00;;;;;21.61;47.55;100454.72;5017150;28;45287;-60
2021/08/08 09:50:39;;;;;;;;;3.50;3.00;;;;;21.66;46.77;100453.28;5017372;28;45454;-60
2021/08/08 09:53:05;;;;;;;;;6.25;4.00;;;;;21.72;46.20;100439.91;5017398;28;45409;-60
2021/08/08 09:55:35;;;;;;;;;6.00;2.00;;;;;21.84;45.86;100455.25;5017190;28;45455;-61
2021/08/08 09:58:01;;;;;;;;;5.00;3.00;;;;;21.96;46.25;100447.41;5016970;28;45419;-61
2021/08/08 10:00:34;;;;;;;;;2.00;2.00;;;;;22.14;46.56;100455.53;5031710;28;45855;-60
2021/08/08 10:03:00;;;;;;;;;8.00;3.50;;;;;22.34;46.07;100447.34;5017113;28;45422;-60
2021/08/08 10:05:26;;;;;;;;;4.00;3.00;;;;;22.55;45.19;100450.75;5017107;28;45446;-60
2021/08/08 10:07:52;;;;;;;;;5.50;4.25;;;;;22.71;44.78;100462.78;5017008;28;45470;-60
2021/08/08 10:10:18;;;;;;;;;5.75;4.00;;;;;22.85;43.73;100468.03;5017024;28;45365;-60
2021/08/08 10:12:43;;;;;;;;;2.75;2.75;;;;;22.98;42.89;100455.31;5017128;28;45424;-60
2021/08/08 10:15:09;;;;;;;;;4.00;1.00;;;;;23.10;43.15;100465.31;5016891;28;45364;-60
2021/08/08 10:17:35;;;;;;;;;3.00;3.00;;;;;23.19;43.18;100471.22;5016528;28;46911;-60
2021/08/08 10:20:00;;;;;;;;;3.00;3.00;;;;;23.20;42.86;100476.34;5017042;28;45325;-61
2021/08/08 10:22:26;;;;;;;;;6.25;3.75;;;;;23.19;41.62;100474.72;5015674;28;45269;-61
2021/08/08 10:24:56;;;;;;;;;3.25;2.00;;;;;23.16;42.40;100471.66;4998555;28;45584;-60
2021/08/08 10:27:24;;;;;;;;;5.25;5.00;;;;;23.09;42.00;100467.16;5016569;28;46213;-60
2021/08/08 10:29:50;;;;;;;;;5.75;4.00;;;;;23.09;42.03;100464.47;5016609;28;45707;-61
2021/08/08 10:32:16;;;;;;;;;3.00;3.00;;;;;23.11;42.60;100475.00;4999102;28;45369;-60
2021/08/08 10:34:41;;;;;;;;;3.25;3.00;;;;;23.12;42.48;100473.97;5015484;28;45571;-61
2021/08/08 10:37:11;;;;;;;;;2.50;2.50;;;;;23.11;42.62;100466.97;5014279;28;70470;-60
2021/08/08 10:39:45;;;;;;;;;2.25;2.25;;;;;23.09;42.16;100469.03;5015009;28;45891;-60
2021/08/08 10:42:11;;;;;;;;;3.00;2.00;;;;;23.04;41.92;100479.59;5016614;28;45291;-60
2021/08/08 10:44:49;;;;;;;;;3.00;3.00;;;;;23.03;42.08;100477.97;5016455;28;45284;-60
2021/08/08 10:47:31;;;;;;;;;4.00;2.00;;;;;23.05;41.78;100470.53;5016148;28;45229;-60
2021/08/08 10:50:14;;;;;;;;;1.75;1.75;;;;;23.16;41.76;100475.16;5016474;28;45307;-60
2021/08/08 10:52:43;;;;;;;;;5.50;4.75;;;;;23.27;40.97;100466.44;5016131;28;45340;-61
2021/08/08 10:55:23;;;;;;;;;4.00;4.00;;;;;23.44;40.86;100462.31;5016185;28;45394;-61
2021/08/08 10:57:49;;;;;;;;;5.00;2.00;;;;;23.59;40.24;100457.38;5015082;28;47083;-60
2021/08/08 11:00:15;;;;;;;;;2.75;2.75;;;;;23.75;40.48;100468.56;5016164;28;45446;-60
2021/08/08 11:02:44;;;;;;;;;5.75;4.00;;;;;23.85;39.08;100468.84;5016200;28;45367;-60
2021/08/08 11:05:19;;;;;;;;;5.00;4.00;;;;;23.85;39.73;100485.75;5016394;28;45505;-60
2021/08/08 11:07:45;;;;;;;;;4.75;2.25;;;;;23.84;39.14;100470.72;5015963;28;45399;-60
2021/08/08 11:10:11;;;;;;;;;4.50;2.75;;;;;23.77;38.76;100475.34;5014748;28;45425;-60
2021/08/08 11:12:40;;;;;;;;;4.00;4.00;;;;;23.69;39.12;100476.44;5016123;28;45209;-60
2021/08/08 11:15:07;;;;;;;;;4.00;3.00;;;;;23.64;39.44;100464.78;5015990;28;45359;-61
2021/08/08 11:17:32;;;;;;;;;5.25;2.25;;;;;23.65;40.00;100479.81;5014571;28;45324;-61
2021/08/08 11:19:58;;;;;;;;;3.00;1.75;;;;;23.72;39.76;100459.09;5015928;28;45334;-60
2021/08/08 11:22:23;;;;;;;;;3.00;3.00;;;;;23.88;39.39;100467.56;5015569;28;56822;-60